sensor_id;sensor_type;location;lat;lon;timestamp;P1;durP1;ratioP1;P2;durP2;ratioP2
33987;SDS011;37428;53.580;-1.666;2024-01-10T00:00:08;2.67;;;0.93;;
33987;SDS011;37428;53.580;-1.666;2024-01-10T00:03:11;1.13;;;0.75;;
33987;SDS011;37428;53.580;-1.666;2024-01-10T00:06:14;2.97;;;1.55;;
33987;SDS011;37428;53.580;-1.666;2024-01-10T00:09:16;3.60;;;1.30;;
33987;SDS011;37428;53.580;-1.666;2024-01-10T00:12:20;2.92;;;0.88;;
33987;SDS011;37428;53.580;-1.666;2024-01-10T00:15:23;2.33;;;0.70;;
33987;SDS011;37428;53.580;-1.666;2024-01-10T00:18:25;2.25;;;0.90;;
33987;SDS011;37428;53.580;-1.666;2024-01-10T00:21:27;2.63;;;0.80;;
33987;SDS011;37428;53.580;-1.666;2024-01-10T00:27:33;6.20;;;1.23;;
33987;SDS011;37428;53.580;-1.666;2024-01-10T00:30:36;3.35;;;0.63;;
33987;SDS011;37428;53.580;-1.666;2024-01-10T00:33:38;2.58;;;0.65;;
33987;SDS011;37428;53.580;-1.666;2024-01-10T00:39:43;1.73;;;0.83;;
33987;SDS011;37428;53.580;-1.666;2024-01-10T00:42:47;2.55;;;0.80;;
33987;SDS011;37428;53.580;-1.666;2024-01-10T00:45:49;2.22;;;0.80;;
33987;SDS011;37428;53.580;-1.666;2024-01-10T00:48:51;3.80;;;0.95;;
33987;SDS011;37428;53.580;-1.666;2024-01-10T00:51:53;2.33;;;0.85;;
33987;SDS011;37428;53.580;-1.666;2024-01-10T00:54:56;3.40;;;1.38;;
33987;SDS011;37428;53.580;-1.666;2024-01-10T00:57:59;4.63;;;1.67;;
33987;SDS011;37428;53.580;-1.666;2024-01-10T01:01:01;5.97;;;1.65;;
33987;SDS011;37428;53.580;-1.666;2024-01-10T01:04:04;3.25;;;1.45;;
33987;SDS011;37428;53.580;-1.666;2024-01-10T01:07:06;3.40;;;1.27;;
33987;SDS011;37428;53.580;-1.666;2024-01-10T01:10:08;2.65;;;1.30;;
33987;SDS011;37428;53.580;-1.666;2024-01-10T01:13:12;3.20;;;1.02;;
33987;SDS011;37428;53.580;-1.666;2024-01-10T01:16:14;1.80;;;0.88;;
33987;SDS011;37428;53.580;-1.666;2024-01-10T01:19:17;1.65;;;0.70;;
33987;SDS011;37428;53.580;-1.666;2024-01-10T01:22:19;3.90;;;1.38;;
33987;SDS011;37428;53.580;-1.666;2024-01-10T01:25:21;1.65;;;1.25;;
33987;SDS011;37428;53.580;-1.666;2024-01-10T01:28:25;2.75;;;1.23;;
33987;SDS011;37428;53.580;-1.666;2024-01-10T01:31:27;2.92;;;1.35;;
33987;SDS011;37428;53.580;-1.666;2024-01-10T01:34:30;3.22;;;1.20;;
33987;SDS011;37428;53.580;-1.666;2024-01-10T01:37:32;3.53;;;1.55;;
33987;SDS011;37428;53.580;-1.666;2024-01-10T01:40:34;4.53;;;1.20;;
33987;SDS011;37428;53.580;-1.666;2024-01-10T01:43:38;3.28;;;1.33;;
33987;SDS011;37428;53.580;-1.666;2024-01-10T01:46:40;6.40;;;1.42;;
33987;SDS011;37428;53.580;-1.666;2024-01-10T01:49:43;3.03;;;1.30;;
33987;SDS011;37428;53.580;-1.666;2024-01-10T01:55:47;5.03;;;1.15;;
33987;SDS011;37428;53.580;-1.666;2024-01-10T01:58:51;1.88;;;1.45;;
33987;SDS011;37428;53.580;-1.666;2024-01-10T02:01:55;5.32;;;1.90;;
33987;SDS011;37428;53.580;-1.666;2024-01-10T02:04:58;3.03;;;1.67;;
33987;SDS011;37428;53.580;-1.666;2024-01-10T02:08:00;2.35;;;1.65;;
33987;SDS011;37428;53.580;-1.666;2024-01-10T02:11:03;3.53;;;1.70;;
33987;SDS011;37428;53.580;-1.666;2024-01-10T02:17:09;4.78;;;2.03;;
33987;SDS011;37428;53.580;-1.666;2024-01-10T02:20:12;5.28;;;1.80;;
33987;SDS011;37428;53.580;-1.666;2024-01-10T02:23:16;6.15;;;1.70;;
33987;SDS011;37428;53.580;-1.666;2024-01-10T02:26:20;1.63;;;1.52;;
33987;SDS011;37428;53.580;-1.666;2024-01-10T02:29:22;5.90;;;2.10;;
33987;SDS011;37428;53.580;-1.666;2024-01-10T02:35:27;3.58;;;1.67;;
33987;SDS011;37428;53.580;-1.666;2024-01-10T02:38:30;7.38;;;2.47;;
33987;SDS011;37428;53.580;-1.666;2024-01-10T02:41:34;4.40;;;2.03;;
33987;SDS011;37428;53.580;-1.666;2024-01-10T02:44:36;2.92;;;2.20;;
33987;SDS011;37428;53.580;-1.666;2024-01-10T02:47:38;3.03;;;1.92;;
33987;SDS011;37428;53.580;-1.666;2024-01-10T02:50:41;4.40;;;4.00;;
33987;SDS011;37428;53.580;-1.666;2024-01-10T02:56:46;4.38;;;2.70;;
33987;SDS011;37428;53.580;-1.666;2024-01-10T02:59:49;7.03;;;3.90;;
33987;SDS011;37428;53.580;-1.666;2024-01-10T03:02:51;6.65;;;4.93;;
33987;SDS011;37428;53.580;-1.666;2024-01-10T03:05:53;8.60;;;4.60;;
33987;SDS011;37428;53.580;-1.666;2024-01-10T03:08:55;7.13;;;5.68;;
33987;SDS011;37428;53.580;-1.666;2024-01-10T03:11:59;8.63;;;5.00;;
33987;SDS011;37428;53.580;-1.666;2024-01-10T03:15:01;8.60;;;5.75;;
33987;SDS011;37428;53.580;-1.666;2024-01-10T03:18:04;9.93;;;5.55;;
33987;SDS011;37428;53.580;-1.666;2024-01-10T03:24:08;7.10;;;6.37;;
33987;SDS011;37428;53.580;-1.666;2024-01-10T03:27:12;7.55;;;6.15;;
33987;SDS011;37428;53.580;-1.666;2024-01-10T03:30:14;9.32;;;7.28;;
33987;SDS011;37428;53.580;-1.666;2024-01-10T03:33:18;111.75;;;11.32;;
33987;SDS011;37428;53.580;-1.666;2024-01-10T03:36:20;45.28;;;9.88;;
33987;SDS011;37428;53.580;-1.666;2024-01-10T03:42:26;83.20;;;10.16;;
33987;SDS011;37428;53.580;-1.666;2024-01-10T03:45:28;40.55;;;8.60;;
33987;SDS011;37428;53.580;-1.666;2024-01-10T03:48:30;56.72;;;10.88;;
33987;SDS011;37428;53.580;-1.666;2024-01-10T03:51:33;190.02;;;15.65;;
33987;SDS011;37428;53.580;-1.666;2024-01-10T03:54:35;85.47;;;10.95;;
33987;SDS011;37428;53.580;-1.666;2024-01-10T03:57:40;16.73;;;8.23;;
33987;SDS011;37428;53.580;-1.666;2024-01-10T04:00:43;146.15;;;14.32;;
33987;SDS011;37428;53.580;-1.666;2024-01-10T04:03:45;53.53;;;9.40;;
33987;SDS011;37428;53.580;-1.666;2024-01-10T04:06:48;22.95;;;9.82;;
33987;SDS011;37428;53.580;-1.666;2024-01-10T04:09:50;184.18;;;14.65;;
33987;SDS011;37428;53.580;-1.666;2024-01-10T04:12:53;29.35;;;9.07;;
33987;SDS011;37428;53.580;-1.666;2024-01-10T04:15:56;316.63;;;19.08;;
33987;SDS011;37428;53.580;-1.666;2024-01-10T04:18:58;54.45;;;10.80;;
33987;SDS011;37428;53.580;-1.666;2024-01-10T04:25:05;564.57;;;30.53;;
33987;SDS011;37428;53.580;-1.666;2024-01-10T04:28:10;188.68;;;15.60;;
33987;SDS011;37428;53.580;-1.666;2024-01-10T04:31:12;167.43;;;14.43;;
33987;SDS011;37428;53.580;-1.666;2024-01-10T04:34:15;247.65;;;15.60;;
33987;SDS011;37428;53.580;-1.666;2024-01-10T04:37:18;276.83;;;18.35;;
33987;SDS011;37428;53.580;-1.666;2024-01-10T04:40:20;438.55;;;29.38;;
33987;SDS011;37428;53.580;-1.666;2024-01-10T04:43:24;176.07;;;15.57;;
33987;SDS011;37428;53.580;-1.666;2024-01-10T04:46:26;168.45;;;16.42;;
33987;SDS011;37428;53.580;-1.666;2024-01-10T04:52:30;41.45;;;9.68;;
33987;SDS011;37428;53.580;-1.666;2024-01-10T04:55:32;118.13;;;12.23;;
33987;SDS011;37428;53.580;-1.666;2024-01-10T04:58:36;550.42;;;42.35;;
33987;SDS011;37428;53.580;-1.666;2024-01-10T05:01:38;281.73;;;18.80;;
33987;SDS011;37428;53.580;-1.666;2024-01-10T05:04:41;84.40;;;10.38;;
33987;SDS011;37428;53.580;-1.666;2024-01-10T05:07:43;422.45;;;24.02;;
33987;SDS011;37428;53.580;-1.666;2024-01-10T05:10:45;275.58;;;17.20;;
33987;SDS011;37428;53.580;-1.666;2024-01-10T05:13:49;66.80;;;9.65;;
33987;SDS011;37428;53.580;-1.666;2024-01-10T05:16:51;110.85;;;12.02;;
33987;SDS011;37428;53.580;-1.666;2024-01-10T05:19:53;100.93;;;10.30;;
33987;SDS011;37428;53.580;-1.666;2024-01-10T05:22:56;139.02;;;12.23;;
33987;SDS011;37428;53.580;-1.666;2024-01-10T05:25:59;92.47;;;10.13;;
33987;SDS011;37428;53.580;-1.666;2024-01-10T05:29:02;51.13;;;9.35;;
33987;SDS011;37428;53.580;-1.666;2024-01-10T05:32:05;10.73;;;7.60;;
33987;SDS011;37428;53.580;-1.666;2024-01-10T05:35:07;33.33;;;7.82;;
33987;SDS011;37428;53.580;-1.666;2024-01-10T05:38:10;56.20;;;7.63;;
33987;SDS011;37428;53.580;-1.666;2024-01-10T05:41:12;236.00;;;17.73;;
33987;SDS011;37428;53.580;-1.666;2024-01-10T05:44:16;266.92;;;20.52;;
33987;SDS011;37428;53.580;-1.666;2024-01-10T05:47:20;78.20;;;8.88;;
33987;SDS011;37428;53.580;-1.666;2024-01-10T05:50:22;12.95;;;7.90;;
33987;SDS011;37428;53.580;-1.666;2024-01-10T05:53:24;94.43;;;11.98;;
33987;SDS011;37428;53.580;-1.666;2024-01-10T05:59:30;121.13;;;11.10;;
33987;SDS011;37428;53.580;-1.666;2024-01-10T06:02:32;112.20;;;11.10;;
33987;SDS011;37428;53.580;-1.666;2024-01-10T06:05:35;81.22;;;7.93;;
33987;SDS011;37428;53.580;-1.666;2024-01-10T06:08:37;249.13;;;17.35;;
33987;SDS011;37428;53.580;-1.666;2024-01-10T06:11:42;104.93;;;8.98;;
33987;SDS011;37428;53.580;-1.666;2024-01-10T06:14:46;298.33;;;20.63;;
33987;SDS011;37428;53.580;-1.666;2024-01-10T06:17:48;227.65;;;14.95;;
33987;SDS011;37428;53.580;-1.666;2024-01-10T06:20:51;95.65;;;11.13;;
33987;SDS011;37428;53.580;-1.666;2024-01-10T06:23:53;275.02;;;15.60;;
33987;SDS011;37428;53.580;-1.666;2024-01-10T06:26:55;15.32;;;6.38;;
33987;SDS011;37428;53.580;-1.666;2024-01-10T06:29:59;390.67;;;25.45;;
33987;SDS011;37428;53.580;-1.666;2024-01-10T06:33:01;423.08;;;22.98;;
33987;SDS011;37428;53.580;-1.666;2024-01-10T06:36:05;221.55;;;16.52;;
33987;SDS011;37428;53.580;-1.666;2024-01-10T06:39:09;122.38;;;11.80;;
33987;SDS011;37428;53.580;-1.666;2024-01-10T06:42:12;165.25;;;13.00;;
33987;SDS011;37428;53.580;-1.666;2024-01-10T06:45:16;448.08;;;26.33;;
33987;SDS011;37428;53.580;-1.666;2024-01-10T06:48:20;428.45;;;24.48;;
33987;SDS011;37428;53.580;-1.666;2024-01-10T06:51:22;274.63;;;14.73;;
33987;SDS011;37428;53.580;-1.666;2024-01-10T06:54:24;230.13;;;14.45;;
33987;SDS011;37428;53.580;-1.666;2024-01-10T06:57:27;299.63;;;17.58;;
33987;SDS011;37428;53.580;-1.666;2024-01-10T07:00:30;104.35;;;10.05;;
33987;SDS011;37428;53.580;-1.666;2024-01-10T07:03:32;33.03;;;7.68;;
33987;SDS011;37428;53.580;-1.666;2024-01-10T07:06:35;85.32;;;10.02;;
33987;SDS011;37428;53.580;-1.666;2024-01-10T07:09:37;7.40;;;5.13;;
33987;SDS011;37428;53.580;-1.666;2024-01-10T07:12:41;6.72;;;3.97;;
33987;SDS011;37428;53.580;-1.666;2024-01-10T07:15:44;10.68;;;5.35;;
33987;SDS011;37428;53.580;-1.666;2024-01-10T07:18:47;25.00;;;5.00;;
33987;SDS011;37428;53.580;-1.666;2024-01-10T07:21:51;94.20;;;7.47;;
33987;SDS011;37428;53.580;-1.666;2024-01-10T07:24:54;189.50;;;13.07;;
33987;SDS011;37428;53.580;-1.666;2024-01-10T07:27:57;23.85;;;6.13;;
33987;SDS011;37428;53.580;-1.666;2024-01-10T07:31:00;28.40;;;7.20;;
33987;SDS011;37428;53.580;-1.666;2024-01-10T07:34:03;19.63;;;7.13;;
33987;SDS011;37428;53.580;-1.666;2024-01-10T07:37:06;6.75;;;6.05;;
33987;SDS011;37428;53.580;-1.666;2024-01-10T07:40:09;20.23;;;7.20;;
33987;SDS011;37428;53.580;-1.666;2024-01-10T07:43:13;25.33;;;10.45;;
33987;SDS011;37428;53.580;-1.666;2024-01-10T07:46:17;22.88;;;7.95;;
33987;SDS011;37428;53.580;-1.666;2024-01-10T07:49:19;7.68;;;5.90;;
33987;SDS011;37428;53.580;-1.666;2024-01-10T07:55:23;13.73;;;6.03;;
33987;SDS011;37428;53.580;-1.666;2024-01-10T07:58:26;9.00;;;5.97;;
33987;SDS011;37428;53.580;-1.666;2024-01-10T08:01:29;10.77;;;7.70;;
33987;SDS011;37428;53.580;-1.666;2024-01-10T08:04:32;13.90;;;7.28;;
33987;SDS011;37428;53.580;-1.666;2024-01-10T08:07:34;11.93;;;7.95;;
33987;SDS011;37428;53.580;-1.666;2024-01-10T08:10:37;17.35;;;6.78;;
33987;SDS011;37428;53.580;-1.666;2024-01-10T08:13:40;14.73;;;7.97;;
33987;SDS011;37428;53.580;-1.666;2024-01-10T08:16:43;23.75;;;9.00;;
33987;SDS011;37428;53.580;-1.666;2024-01-10T08:19:46;14.65;;;7.85;;
33987;SDS011;37428;53.580;-1.666;2024-01-10T08:22:48;28.80;;;10.82;;
33987;SDS011;37428;53.580;-1.666;2024-01-10T08:25:50;17.50;;;9.55;;
33987;SDS011;37428;53.580;-1.666;2024-01-10T08:28:52;17.25;;;9.40;;
33987;SDS011;37428;53.580;-1.666;2024-01-10T08:31:56;27.85;;;12.82;;
33987;SDS011;37428;53.580;-1.666;2024-01-10T08:34:58;20.35;;;11.32;;
33987;SDS011;37428;53.580;-1.666;2024-01-10T08:38:01;13.25;;;9.38;;
33987;SDS011;37428;53.580;-1.666;2024-01-10T08:41:06;17.75;;;9.43;;
33987;SDS011;37428;53.580;-1.666;2024-01-10T08:44:11;26.17;;;9.75;;
33987;SDS011;37428;53.580;-1.666;2024-01-10T08:50:17;26.52;;;10.32;;
33987;SDS011;37428;53.580;-1.666;2024-01-10T08:53:19;10.63;;;7.53;;
33987;SDS011;37428;53.580;-1.666;2024-01-10T08:56:21;18.10;;;10.43;;
33987;SDS011;37428;53.580;-1.666;2024-01-10T08:59:24;12.48;;;8.05;;
33987;SDS011;37428;53.580;-1.666;2024-01-10T09:02:29;13.88;;;8.77;;
33987;SDS011;37428;53.580;-1.666;2024-01-10T09:05:31;19.85;;;8.70;;
33987;SDS011;37428;53.580;-1.666;2024-01-10T09:08:34;13.10;;;8.13;;
33987;SDS011;37428;53.580;-1.666;2024-01-10T09:11:36;4.90;;;4.40;;
33987;SDS011;37428;53.580;-1.666;2024-01-10T09:14:39;12.38;;;6.97;;
33987;SDS011;37428;53.580;-1.666;2024-01-10T09:17:42;7.28;;;5.80;;
33987;SDS011;37428;53.580;-1.666;2024-01-10T09:20:45;7.13;;;4.93;;
33987;SDS011;37428;53.580;-1.666;2024-01-10T09:23:48;8.50;;;4.93;;
33987;SDS011;37428;53.580;-1.666;2024-01-10T09:26:51;6.18;;;3.90;;
33987;SDS011;37428;53.580;-1.666;2024-01-10T09:29:53;4.13;;;3.78;;
33987;SDS011;37428;53.580;-1.666;2024-01-10T09:36:00;32.95;;;8.45;;
33987;SDS011;37428;53.580;-1.666;2024-01-10T09:39:03;110.78;;;12.23;;
33987;SDS011;37428;53.580;-1.666;2024-01-10T09:42:11;54.28;;;6.90;;
33987;SDS011;37428;53.580;-1.666;2024-01-10T09:45:15;4.18;;;3.88;;
33987;SDS011;37428;53.580;-1.666;2024-01-10T09:48:22;398.45;;;20.17;;
33987;SDS011;37428;53.580;-1.666;2024-01-10T09:51:24;26.60;;;4.78;;
33987;SDS011;37428;53.580;-1.666;2024-01-10T09:54:29;270.42;;;20.50;;
33987;SDS011;37428;53.580;-1.666;2024-01-10T09:57:32;161.55;;;9.85;;
33987;SDS011;37428;53.580;-1.666;2024-01-10T10:00:36;10.88;;;3.33;;
33987;SDS011;37428;53.580;-1.666;2024-01-10T10:03:42;37.92;;;5.53;;
33987;SDS011;37428;53.580;-1.666;2024-01-10T10:06:47;17.13;;;4.85;;
33987;SDS011;37428;53.580;-1.666;2024-01-10T10:09:59;6.53;;;4.10;;
33987;SDS011;37428;53.580;-1.666;2024-01-10T10:13:01;3.83;;;3.53;;
33987;SDS011;37428;53.580;-1.666;2024-01-10T10:16:04;7.10;;;5.88;;
33987;SDS011;37428;53.580;-1.666;2024-01-10T10:19:08;9.98;;;6.07;;
33987;SDS011;37428;53.580;-1.666;2024-01-10T10:22:11;7.55;;;5.90;;
33987;SDS011;37428;53.580;-1.666;2024-01-10T10:25:15;41.60;;;8.82;;
33987;SDS011;37428;53.580;-1.666;2024-01-10T10:28:17;15.15;;;8.25;;
33987;SDS011;37428;53.580;-1.666;2024-01-10T10:31:20;72.90;;;16.20;;
33987;SDS011;37428;53.580;-1.666;2024-01-10T10:37:31;15.52;;;9.40;;
33987;SDS011;37428;53.580;-1.666;2024-01-10T10:40:34;33.72;;;16.15;;
33987;SDS011;37428;53.580;-1.666;2024-01-10T10:43:36;26.85;;;14.32;;
33987;SDS011;37428;53.580;-1.666;2024-01-10T10:46:39;21.30;;;12.45;;
33987;SDS011;37428;53.580;-1.666;2024-01-10T10:49:47;14.80;;;10.30;;
33987;SDS011;37428;53.580;-1.666;2024-01-10T10:52:54;23.02;;;9.93;;
33987;SDS011;37428;53.580;-1.666;2024-01-10T10:55:57;12.20;;;9.48;;
33987;SDS011;37428;53.580;-1.666;2024-01-10T10:59:01;8.68;;;6.60;;
33987;SDS011;37428;53.580;-1.666;2024-01-10T11:02:05;68.63;;;15.63;;
33987;SDS011;37428;53.580;-1.666;2024-01-10T11:05:12;13.15;;;9.35;;
33987;SDS011;37428;53.580;-1.666;2024-01-10T11:08:15;11.65;;;9.25;;
33987;SDS011;37428;53.580;-1.666;2024-01-10T11:11:23;23.40;;;14.40;;
33987;SDS011;37428;53.580;-1.666;2024-01-10T11:14:38;12.93;;;9.20;;
33987;SDS011;37428;53.580;-1.666;2024-01-10T11:17:59;14.50;;;11.50;;
33987;SDS011;37428;53.580;-1.666;2024-01-10T11:21:21;13.30;;;9.07;;
33987;SDS011;37428;53.580;-1.666;2024-01-10T11:24:30;16.70;;;10.00;;
33987;SDS011;37428;53.580;-1.666;2024-01-10T11:27:33;19.60;;;11.02;;
33987;SDS011;37428;53.580;-1.666;2024-01-10T11:30:35;22.67;;;12.00;;
33987;SDS011;37428;53.580;-1.666;2024-01-10T11:33:39;21.02;;;11.43;;
33987;SDS011;37428;53.580;-1.666;2024-01-10T11:36:54;18.35;;;11.80;;
33987;SDS011;37428;53.580;-1.666;2024-01-10T11:40:11;48.80;;;12.63;;
33987;SDS011;37428;53.580;-1.666;2024-01-10T11:43:14;24.58;;;12.77;;
33987;SDS011;37428;53.580;-1.666;2024-01-10T11:46:17;27.48;;;16.33;;
33987;SDS011;37428;53.580;-1.666;2024-01-10T11:49:20;10.15;;;6.95;;
33987;SDS011;37428;53.580;-1.666;2024-01-10T11:52:31;7.30;;;6.70;;
33987;SDS011;37428;53.580;-1.666;2024-01-10T11:59:00;18.70;;;11.20;;
33987;SDS011;37428;53.580;-1.666;2024-01-10T12:02:04;13.25;;;9.95;;
33987;SDS011;37428;53.580;-1.666;2024-01-10T12:05:07;17.73;;;10.25;;
33987;SDS011;37428;53.580;-1.666;2024-01-10T12:08:13;34.08;;;11.07;;
33987;SDS011;37428;53.580;-1.666;2024-01-10T12:11:15;21.88;;;11.50;;
33987;SDS011;37428;53.580;-1.666;2024-01-10T12:14:17;26.73;;;10.95;;
33987;SDS011;37428;53.580;-1.666;2024-01-10T12:17:20;27.83;;;12.57;;
33987;SDS011;37428;53.580;-1.666;2024-01-10T12:20:23;9.15;;;7.28;;
33987;SDS011;37428;53.580;-1.666;2024-01-10T12:23:26;9.27;;;4.32;;
33987;SDS011;37428;53.580;-1.666;2024-01-10T12:26:31;7.82;;;5.45;;
33987;SDS011;37428;53.580;-1.666;2024-01-10T12:32:36;39.10;;;12.30;;
33987;SDS011;37428;53.580;-1.666;2024-01-10T12:35:38;6.97;;;5.75;;
33987;SDS011;37428;53.580;-1.666;2024-01-10T12:38:44;12.73;;;7.75;;
33987;SDS011;37428;53.580;-1.666;2024-01-10T12:41:46;7.53;;;5.10;;
33987;SDS011;37428;53.580;-1.666;2024-01-10T12:44:50;15.35;;;7.90;;
33987;SDS011;37428;53.580;-1.666;2024-01-10T12:47:53;6.28;;;3.85;;
33987;SDS011;37428;53.580;-1.666;2024-01-10T12:50:55;5.68;;;4.88;;
33987;SDS011;37428;53.580;-1.666;2024-01-10T12:54:02;8.00;;;4.47;;
33987;SDS011;37428;53.580;-1.666;2024-01-10T12:57:05;9.52;;;6.75;;
33987;SDS011;37428;53.580;-1.666;2024-01-10T13:00:08;11.30;;;8.10;;
33987;SDS011;37428;53.580;-1.666;2024-01-10T13:03:11;10.68;;;7.63;;
33987;SDS011;37428;53.580;-1.666;2024-01-10T13:06:14;11.95;;;7.10;;
33987;SDS011;37428;53.580;-1.666;2024-01-10T13:09:18;6.30;;;5.57;;
33987;SDS011;37428;53.580;-1.666;2024-01-10T13:12:20;5.68;;;4.07;;
33987;SDS011;37428;53.580;-1.666;2024-01-10T13:15:23;6.72;;;4.15;;
33987;SDS011;37428;53.580;-1.666;2024-01-10T13:18:25;8.98;;;4.07;;
33987;SDS011;37428;53.580;-1.666;2024-01-10T13:21:28;9.50;;;3.00;;
33987;SDS011;37428;53.580;-1.666;2024-01-10T13:24:32;9.10;;;3.00;;
33987;SDS011;37428;53.580;-1.666;2024-01-10T13:27:34;5.15;;;2.80;;
33987;SDS011;37428;53.580;-1.666;2024-01-10T13:33:44;6.65;;;2.35;;
33987;SDS011;37428;53.580;-1.666;2024-01-10T13:36:46;3.53;;;2.08;;
33987;SDS011;37428;53.580;-1.666;2024-01-10T13:39:50;6.72;;;2.47;;
33987;SDS011;37428;53.580;-1.666;2024-01-10T13:42:52;3.83;;;2.90;;
33987;SDS011;37428;53.580;-1.666;2024-01-10T13:48:57;5.37;;;2.50;;
33987;SDS011;37428;53.580;-1.666;2024-01-10T13:51:59;8.57;;;4.10;;
33987;SDS011;37428;53.580;-1.666;2024-01-10T13:55:03;8.40;;;5.05;;
33987;SDS011;37428;53.580;-1.666;2024-01-10T13:58:05;9.80;;;3.45;;
33987;SDS011;37428;53.580;-1.666;2024-01-10T14:01:10;7.78;;;5.13;;
33987;SDS011;37428;53.580;-1.666;2024-01-10T14:04:12;6.30;;;3.28;;
33987;SDS011;37428;53.580;-1.666;2024-01-10T14:07:14;13.10;;;6.10;;
33987;SDS011;37428;53.580;-1.666;2024-01-10T14:10:17;5.60;;;4.18;;
33987;SDS011;37428;53.580;-1.666;2024-01-10T14:13:20;7.60;;;3.40;;
33987;SDS011;37428;53.580;-1.666;2024-01-10T14:16:23;10.85;;;3.33;;
33987;SDS011;37428;53.580;-1.666;2024-01-10T14:19:25;6.88;;;3.72;;
33987;SDS011;37428;53.580;-1.666;2024-01-10T14:22:27;10.30;;;4.90;;
33987;SDS011;37428;53.580;-1.666;2024-01-10T14:25:31;5.15;;;4.50;;
33987;SDS011;37428;53.580;-1.666;2024-01-10T14:28:33;7.25;;;4.97;;
33987;SDS011;37428;53.580;-1.666;2024-01-10T14:31:35;5.07;;;4.65;;
33987;SDS011;37428;53.580;-1.666;2024-01-10T14:34:40;6.22;;;4.85;;
33987;SDS011;37428;53.580;-1.666;2024-01-10T14:37:42;13.38;;;7.13;;
33987;SDS011;37428;53.580;-1.666;2024-01-10T14:40:45;11.15;;;6.72;;
33987;SDS011;37428;53.580;-1.666;2024-01-10T14:43:48;7.38;;;5.47;;
33987;SDS011;37428;53.580;-1.666;2024-01-10T14:46:50;9.27;;;4.60;;
33987;SDS011;37428;53.580;-1.666;2024-01-10T14:49:55;4.60;;;4.18;;
33987;SDS011;37428;53.580;-1.666;2024-01-10T14:52:57;9.48;;;7.60;;
33987;SDS011;37428;53.580;-1.666;2024-01-10T14:56:01;12.07;;;7.90;;
33987;SDS011;37428;53.580;-1.666;2024-01-10T14:59:04;7.78;;;6.47;;
33987;SDS011;37428;53.580;-1.666;2024-01-10T15:02:06;11.82;;;7.07;;
33987;SDS011;37428;53.580;-1.666;2024-01-10T15:05:10;7.05;;;6.35;;
33987;SDS011;37428;53.580;-1.666;2024-01-10T15:08:13;6.10;;;5.57;;
33987;SDS011;37428;53.580;-1.666;2024-01-10T15:11:17;6.72;;;5.82;;
33987;SDS011;37428;53.580;-1.666;2024-01-10T15:14:21;11.18;;;8.77;;
33987;SDS011;37428;53.580;-1.666;2024-01-10T15:17:23;8.95;;;6.68;;
33987;SDS011;37428;53.580;-1.666;2024-01-10T15:20:25;10.65;;;7.45;;
33987;SDS011;37428;53.580;-1.666;2024-01-10T15:23:28;10.00;;;5.68;;
33987;SDS011;37428;53.580;-1.666;2024-01-10T15:26:31;10.27;;;7.15;;
33987;SDS011;37428;53.580;-1.666;2024-01-10T15:29:33;9.13;;;6.10;;
33987;SDS011;37428;53.580;-1.666;2024-01-10T15:32:36;6.75;;;5.32;;
33987;SDS011;37428;53.580;-1.666;2024-01-10T15:35:39;8.60;;;4.80;;
33987;SDS011;37428;53.580;-1.666;2024-01-10T15:38:41;7.50;;;4.47;;
33987;SDS011;37428;53.580;-1.666;2024-01-10T15:41:45;5.35;;;4.88;;
33987;SDS011;37428;53.580;-1.666;2024-01-10T15:44:47;6.82;;;5.22;;
33987;SDS011;37428;53.580;-1.666;2024-01-10T15:47:49;5.30;;;4.63;;
33987;SDS011;37428;53.580;-1.666;2024-01-10T15:50:51;6.20;;;5.15;;
33987;SDS011;37428;53.580;-1.666;2024-01-10T15:53:54;10.45;;;6.68;;
33987;SDS011;37428;53.580;-1.666;2024-01-10T15:56:59;9.75;;;6.25;;
33987;SDS011;37428;53.580;-1.666;2024-01-10T16:00:02;12.10;;;9.15;;
33987;SDS011;37428;53.580;-1.666;2024-01-10T16:03:05;9.30;;;7.50;;
33987;SDS011;37428;53.580;-1.666;2024-01-10T16:06:07;14.57;;;11.45;;
33987;SDS011;37428;53.580;-1.666;2024-01-10T16:09:10;23.90;;;18.42;;
33987;SDS011;37428;53.580;-1.666;2024-01-10T16:12:14;57.10;;;37.00;;
33987;SDS011;37428;53.580;-1.666;2024-01-10T16:15:16;80.22;;;54.20;;
33987;SDS011;37428;53.580;-1.666;2024-01-10T16:18:18;50.65;;;39.97;;
33987;SDS011;37428;53.580;-1.666;2024-01-10T16:21:21;94.72;;;76.07;;
33987;SDS011;37428;53.580;-1.666;2024-01-10T16:24:23;31.02;;;27.73;;
33987;SDS011;37428;53.580;-1.666;2024-01-10T16:27:26;96.07;;;73.90;;
33987;SDS011;37428;53.580;-1.666;2024-01-10T16:30:29;17.40;;;15.68;;
33987;SDS011;37428;53.580;-1.666;2024-01-10T16:33:31;23.25;;;19.60;;
33987;SDS011;37428;53.580;-1.666;2024-01-10T16:36:33;17.48;;;14.30;;
33987;SDS011;37428;53.580;-1.666;2024-01-10T16:39:35;17.40;;;14.60;;
33987;SDS011;37428;53.580;-1.666;2024-01-10T16:42:40;8.48;;;7.78;;
33987;SDS011;37428;53.580;-1.666;2024-01-10T16:45:48;13.10;;;11.77;;
33987;SDS011;37428;53.580;-1.666;2024-01-10T16:48:56;9.85;;;6.88;;
33987;SDS011;37428;53.580;-1.666;2024-01-10T16:55:00;7.53;;;6.22;;
33987;SDS011;37428;53.580;-1.666;2024-01-10T16:58:04;7.55;;;6.85;;
33987;SDS011;37428;53.580;-1.666;2024-01-10T17:01:07;8.18;;;5.95;;
33987;SDS011;37428;53.580;-1.666;2024-01-10T17:04:12;7.22;;;4.10;;
33987;SDS011;37428;53.580;-1.666;2024-01-10T17:07:28;8.05;;;4.22;;
33987;SDS011;37428;53.580;-1.666;2024-01-10T17:10:32;6.35;;;5.20;;
33987;SDS011;37428;53.580;-1.666;2024-01-10T17:13:40;10.15;;;7.38;;
33987;SDS011;37428;53.580;-1.666;2024-01-10T17:17:25;10.48;;;8.00;;
33987;SDS011;37428;53.580;-1.666;2024-01-10T17:20:33;5.97;;;4.38;;
33987;SDS011;37428;53.580;-1.666;2024-01-10T17:23:41;8.68;;;7.13;;
33987;SDS011;37428;53.580;-1.666;2024-01-10T17:26:44;12.75;;;8.48;;
33987;SDS011;37428;53.580;-1.666;2024-01-10T17:29:48;10.48;;;7.93;;
33987;SDS011;37428;53.580;-1.666;2024-01-10T17:32:51;6.72;;;4.40;;
33987;SDS011;37428;53.580;-1.666;2024-01-10T17:35:53;8.93;;;5.95;;
33987;SDS011;37428;53.580;-1.666;2024-01-10T17:39:09;8.02;;;5.53;;
33987;SDS011;37428;53.580;-1.666;2024-01-10T17:42:25;9.20;;;6.75;;
33987;SDS011;37428;53.580;-1.666;2024-01-10T17:45:29;7.65;;;6.50;;
33987;SDS011;37428;53.580;-1.666;2024-01-10T17:48:34;8.30;;;6.57;;
33987;SDS011;37428;53.580;-1.666;2024-01-10T17:51:42;8.38;;;6.78;;
33987;SDS011;37428;53.580;-1.666;2024-01-10T17:54:46;11.00;;;9.00;;
33987;SDS011;37428;53.580;-1.666;2024-01-10T17:58:04;10.75;;;9.55;;
33987;SDS011;37428;53.580;-1.666;2024-01-10T18:01:12;10.70;;;8.30;;
33987;SDS011;37428;53.580;-1.666;2024-01-10T18:04:16;15.15;;;10.88;;
33987;SDS011;37428;53.580;-1.666;2024-01-10T18:07:18;10.55;;;7.85;;
33987;SDS011;37428;53.580;-1.666;2024-01-10T18:10:20;16.20;;;11.30;;
33987;SDS011;37428;53.580;-1.666;2024-01-10T18:13:24;9.75;;;7.50;;
33987;SDS011;37428;53.580;-1.666;2024-01-10T18:16:28;11.05;;;9.88;;
33987;SDS011;37428;53.580;-1.666;2024-01-10T18:19:30;10.35;;;9.43;;
33987;SDS011;37428;53.580;-1.666;2024-01-10T18:22:32;9.05;;;7.28;;
33987;SDS011;37428;53.580;-1.666;2024-01-10T18:25:35;39.53;;;19.48;;
33987;SDS011;37428;53.580;-1.666;2024-01-10T18:28:39;48.90;;;20.52;;
33987;SDS011;37428;53.580;-1.666;2024-01-10T18:31:45;12.75;;;10.30;;
33987;SDS011;37428;53.580;-1.666;2024-01-10T18:34:47;8.05;;;7.25;;
33987;SDS011;37428;53.580;-1.666;2024-01-10T18:37:50;13.52;;;9.43;;
33987;SDS011;37428;53.580;-1.666;2024-01-10T18:40:52;17.65;;;11.55;;
33987;SDS011;37428;53.580;-1.666;2024-01-10T18:43:54;20.55;;;10.13;;
33987;SDS011;37428;53.580;-1.666;2024-01-10T18:47:04;10.43;;;8.57;;
33987;SDS011;37428;53.580;-1.666;2024-01-10T18:50:08;9.50;;;8.50;;
33987;SDS011;37428;53.580;-1.666;2024-01-10T18:53:10;13.55;;;11.18;;